TimeEST,TemperatureF,Dew PointF,Humidity,Sea Level PressureIn,VisibilityMPH,Wind Direction,Wind SpeedMPH,Gust SpeedMPH,PrecipitationIn,Events,Conditions,WindDirDegrees,DateUTC
12:15 AM,42.8,35.1,74,30.35,10.0,North,8.1,-,N/A,,Overcast,360,2012-11-15 05:15:00
12:35 AM,42.8,34.9,74,30.34,10.0,NNW,6.9,-,N/A,,Overcast,340,2012-11-15 05:35:00
12:55 AM,42.8,35.1,74,30.34,10.0,North,9.2,-,N/A,,Overcast,350,2012-11-15 05:55:00
1:15 AM,42.8,35.1,74,30.34,10.0,North,6.9,-,N/A,,Overcast,350,2012-11-15 06:15:00
1:35 AM,42.8,35.2,75,30.33,10.0,North,8.1,-,N/A,,Overcast,360,2012-11-15 06:35:00
1:55 AM,42.8,35.6,76,30.32,10.0,North,6.9,-,N/A,,Scattered Clouds,10,2012-11-15 06:55:00
2:15 AM,42.8,35.8,76,30.32,10.0,North,6.9,-,N/A,,Clear,360,2012-11-15 07:15:00
2:35 AM,40.5,34.0,78,30.32,10.0,North,8.1,-,N/A,,Clear,360,2012-11-15 07:35:00
2:55 AM,40.3,33.8,78,30.31,10.0,North,6.9,-,N/A,,Clear,360,2012-11-15 07:55:00
3:15 AM,40.3,33.4,77,30.30,10.0,North,6.9,-,N/A,,Clear,10,2012-11-15 08:15:00
3:35 AM,40.1,33.4,77,30.29,10.0,North,5.8,-,N/A,,Clear,10,2012-11-15 08:35:00
3:55 AM,40.1,33.8,78,30.29,10.0,North,6.9,-,N/A,,Clear,360,2012-11-15 08:55:00
4:15 AM,40.3,34.0,78,30.29,10.0,North,5.8,-,N/A,,Clear,360,2012-11-15 09:15:00
4:35 AM,40.6,34.3,78,30.29,10.0,North,5.8,-,N/A,,Mostly Cloudy,360,2012-11-15 09:35:00
4:55 AM,42.8,36.0,77,30.28,10.0,NNE,8.1,-,N/A,,Overcast,30,2012-11-15 09:55:00
5:15 AM,42.8,35.6,76,30.29,10.0,North,5.8,-,N/A,,Overcast,350,2012-11-15 10:15:00
5:35 AM,42.8,35.6,76,30.28,10.0,North,5.8,-,N/A,,Overcast,360,2012-11-15 10:35:00
5:55 AM,42.8,35.8,76,30.28,10.0,NW,4.6,-,N/A,,Overcast,310,2012-11-15 10:55:00
6:15 AM,42.8,35.8,76,30.29,10.0,NNW,4.6,-,N/A,,Overcast,330,2012-11-15 11:15:00
6:35 AM,42.8,36.0,77,30.30,10.0,NNW,3.5,-,N/A,,Overcast,330,2012-11-15 11:35:00
6:55 AM,42.8,36.3,78,30.29,10.0,NNW,5.8,-,N/A,,Scattered Clouds,330,2012-11-15 11:55:00
7:15 AM,42.8,36.3,78,30.29,10.0,North,6.9,-,N/A,,Scattered Clouds,350,2012-11-15 12:15:00
7:35 AM,42.8,36.0,77,30.29,10.0,NNW,5.8,-,N/A,,Overcast,340,2012-11-15 12:35:00
7:55 AM,42.8,36.0,77,30.29,10.0,North,6.9,-,N/A,,Overcast,10,2012-11-15 12:55:00
8:15 AM,43.7,37.2,78,30.29,10.0,North,6.9,-,N/A,,Mostly Cloudy,360,2012-11-15 13:15:00
8:35 AM,44.2,37.6,77,30.30,10.0,North,5.8,-,N/A,,Mostly Cloudy,360,2012-11-15 13:35:00
8:55 AM,45.1,38.3,77,30.29,10.0,North,9.2,-,N/A,,Mostly Cloudy,360,2012-11-15 13:55:00
9:15 AM,45.9,38.8,76,30.29,10.0,North,6.9,-,N/A,,Mostly Cloudy,10,2012-11-15 14:15:00
9:35 AM,45.9,39.0,77,30.29,10.0,North,6.9,-,N/A,,Overcast,360,2012-11-15 14:35:00
9:55 AM,46.4,39.6,77,30.29,10.0,North,6.9,-,N/A,,Overcast,360,2012-11-15 14:55:00
10:15 AM,47.7,40.6,77,30.28,10.0,North,10.4,-,N/A,,Overcast,360,2012-11-15 15:15:00
10:35 AM,47.7,40.6,77,30.27,10.0,North,9.2,-,N/A,,Scattered Clouds,10,2012-11-15 15:35:00
10:55 AM,50.2,43.2,77,30.25,10.0,NNE,10.4,-,N/A,,Clear,20,2012-11-15 15:55:00
11:15 AM,52.7,45.5,76,30.26,10.0,North,6.9,-,N/A,,Clear,360,2012-11-15 16:15:00
11:35 AM,52.7,45.1,75,30.25,10.0,North,5.8,-,N/A,,Clear,10,2012-11-15 16:35:00
11:55 AM,52.7,44.8,74,30.24,10.0,NNE,6.9,-,N/A,,Scattered Clouds,20,2012-11-15 16:55:00
12:15 PM,53.4,45.5,75,30.24,10.0,NNE,9.2,-,N/A,,Mostly Cloudy,20,2012-11-15 17:15:00
12:35 PM,54.0,45.9,74,30.24,10.0,NNE,5.8,-,N/A,,Mostly Cloudy,20,2012-11-15 17:35:00
12:55 PM,55.4,47.3,74,30.22,10.0,NNE,8.1,-,N/A,,Mostly Cloudy,20,2012-11-15 17:55:00
1:15 PM,55.4,47.5,75,30.22,10.0,North,8.1,-,N/A,,Mostly Cloudy,10,2012-11-15 18:15:00
1:35 PM,55.4,47.3,74,30.23,10.0,NNW,9.2,-,N/A,,Mostly Cloudy,340,2012-11-15 18:35:00
1:55 PM,55.4,47.5,75,30.21,10.0,North,8.1,-,N/A,,Overcast,360,2012-11-15 18:55:00
2:15 PM,55.4,47.5,75,30.22,10.0,NNW,6.9,-,N/A,,Mostly Cloudy,340,2012-11-15 19:15:00
2:35 PM,53.8,46.6,77,30.23,10.0,NW,5.8,-,N/A,,Overcast,310,2012-11-15 19:35:00
2:55 PM,52.7,46.0,78,30.23,10.0,NNW,4.6,-,N/A,,Overcast,330,2012-11-15 19:55:00
3:15 PM,52.7,46.0,78,30.23,10.0,NNW,9.2,-,N/A,,Overcast,340,2012-11-15 20:15:00
3:35 PM,52.7,46.2,79,30.24,10.0,NNW,5.8,-,N/A,,Overcast,330,2012-11-15 20:35:00
3:55 PM,52.7,46.4,79,30.23,10.0,NNW,8.1,-,N/A,,Overcast,340,2012-11-15 20:55:00
4:15 PM,52.7,46.4,79,30.23,10.0,NNW,5.8,-,N/A,,Overcast,330,2012-11-15 21:15:00
4:35 PM,52.7,46.4,79,30.22,10.0,North,9.2,-,N/A,,Light Drizzle,350,2012-11-15 21:35:00
4:55 PM,52.7,46.6,80,30.22,10.0,North,6.9,-,N/A,,Overcast,360,2012-11-15 21:55:00
5:15 PM,52.7,46.9,81,30.24,10.0,Calm,Calm,-,N/A,,Overcast,0,2012-11-15 22:15:00
5:35 PM,52.7,46.9,81,30.23,10.0,North,5.8,-,N/A,,Overcast,360,2012-11-15 22:35:00
5:55 PM,52.7,46.9,81,30.22,10.0,North,5.8,-,N/A,Rain,Rain,350,2012-11-15 22:55:00
6:15 PM,52.7,46.9,81,30.24,5.0,Calm,Calm,-,0.03,Rain,Rain,0,2012-11-15 23:15:00
6:35 PM,52.7,46.9,81,30.24,5.0,North,3.5,-,0.06,Rain,Rain,10,2012-11-15 23:35:00
6:55 PM,52.7,46.9,81,30.23,7.0,NNE,9.2,-,0.08,Rain,Rain,30,2012-11-15 23:55:00
7:15 PM,52.7,46.9,81,30.24,10.0,NNE,4.6,-,0.01,Rain,Light Rain,20,2012-11-16 00:15:00
7:35 PM,52.7,46.9,81,30.23,10.0,North,9.2,-,0.01,Rain,Light Rain,10,2012-11-16 00:35:00
7:55 PM,50.2,44.6,81,30.23,7.0,North,8.1,-,0.03,Rain,Rain,10,2012-11-16 00:55:00
8:15 PM,50.2,44.6,81,30.23,10.0,NE,9.2,-,0.01,Rain,Light Rain,50,2012-11-16 01:15:00
8:35 PM,49.3,43.7,81,30.24,10.0,NE,8.1,-,0.03,Rain,Rain,50,2012-11-16 01:35:00
8:55 PM,48.2,42.4,80,30.22,7.0,ENE,13.8,19.6,0.06,Rain,Rain,60,2012-11-16 01:55:00
9:15 PM,47.7,42.1,81,30.23,10.0,NE,8.1,-,0.03,Rain,Rain,50,2012-11-16 02:15:00
9:35 PM,47.7,42.1,81,30.22,10.0,NNE,9.2,-,0.04,Rain,Light Rain,20,2012-11-16 02:35:00
9:55 PM,47.7,42.1,81,30.21,10.0,NNE,10.4,-,0.04,,Light Drizzle,20,2012-11-16 02:55:00
10:15 PM,47.7,42.1,81,30.23,10.0,NNE,6.9,-,N/A,,Overcast,20,2012-11-16 03:15:00
10:35 PM,47.7,42.1,81,30.24,10.0,NNW,5.8,-,0.01,,Mostly Cloudy,330,2012-11-16 03:35:00
10:55 PM,47.7,42.1,81,30.23,10.0,North,8.1,-,0.01,,Light Drizzle,360,2012-11-16 03:55:00
11:15 PM,47.7,42.1,81,30.23,10.0,North,6.9,-,N/A,,Light Drizzle,360,2012-11-16 04:15:00
11:35 PM,47.7,42.1,81,30.24,10.0,North,3.5,-,N/A,Rain,Light Rain,10,2012-11-16 04:35:00
11:55 PM,47.7,42.1,81,30.24,10.0,North,5.8,-,N/A,,Light Drizzle,10,2012-11-16 04:55:00